Time;durP1;ratioP1;P1;durP2;ratioP2;P2;SDS_P1;SDS_P2;PMS_P1;PMS_P2;Temp;Humidity;BMP_temperature;BMP_pressure;BME280_temperature;BME280_humidity;BME280_pressure;Samples;Min_cycle;Max_cycle;Signal;HPM_P1;HPM_P2
2022/06/05 00:00:20;;;;;;;11.13;6.97;;;;;;;;;;5021912;28;20476;-73
2022/06/05 00:03:10;;;;;;;15.27;7.40;;;;;;;;;;5019707;28;20495;-73
2022/06/05 00:05:43;;;;;;;8.77;6.10;;;;;;;;;;5015659;28;20070;-72
2022/06/05 00:08:13;;;;;;;12.93;6.07;;;;;;;;;;5024175;28;20021;-72
2022/06/05 00:10:52;;;;;;;10.70;6.25;;;;;;;;;;5024179;28;20029;-73
2022/06/05 00:13:24;;;;;;;11.13;6.38;;;;;;;;;;5025937;28;20034;-72
2022/06/05 00:15:50;;;;;;;11.10;6.47;;;;;;;;;;5017724;28;20020;-73
2022/06/05 00:18:17;;;;;;;10.80;6.63;;;;;;;;;;5018021;28;20037;-72
2022/06/05 00:20:44;;;;;;;11.68;6.90;;;;;;;;;;5019467;28;20077;-73
2022/06/05 00:23:10;;;;;;;11.68;7.20;;;;;;;;;;5019089;28;20030;-72
2022/06/05 00:25:42;;;;;;;11.25;6.32;;;;;;;;;;5020827;28;20454;-73
2022/06/05 00:28:21;;;;;;;11.18;6.00;;;;;;;;;;5022817;28;20080;-73
2022/06/05 00:30:53;;;;;;;8.70;6.38;;;;;;;;;;5020440;28;20041;-73
2022/06/05 00:33:30;;;;;;;9.82;6.35;;;;;;;;;;5018775;28;20034;-75
2022/06/05 00:36:16;;;;;;;11.38;6.00;;;;;;;;;;5018979;28;20104;-73
2022/06/05 00:38:52;;;;;;;12.65;6.82;;;;;;;;;;5017914;28;20050;-73
2022/06/05 00:41:18;;;;;;;15.25;6.72;;;;;;;;;;5022846;28;20057;-73
2022/06/05 00:43:45;;;;;;;11.07;5.85;;;;;;;;;;5018331;28;20042;-73
2022/06/05 00:46:11;;;;;;;7.03;5.60;;;;;;;;;;5017501;28;20073;-73
2022/06/05 00:48:37;;;;;;;11.15;6.15;;;;;;;;;;5010029;28;20087;-73
2022/06/05 00:51:04;;;;;;;13.20;6.25;;;;;;;;;;5023611;28;20030;-72
2022/06/05 00:53:30;;;;;;;12.77;5.63;;;;;;;;;;5012700;28;20098;-72
2022/06/05 00:55:57;;;;;;;14.10;6.70;;;;;;;;;;5018040;28;20022;-73
2022/06/05 00:58:23;;;;;;;10.32;6.18;;;;;;;;;;5016584;28;20077;-73
2022/06/05 01:00:54;;;;;;;14.15;7.45;;;;;;;;;;5024124;28;20027;-73
2022/06/05 01:03:21;;;;;;;13.43;6.50;;;;;;;;;;5028945;28;20030;-73
2022/06/05 01:05:48;;;;;;;13.20;6.00;;;;;;;;;;5024710;28;20534;-73
2022/06/05 01:08:15;;;;;;;9.70;7.05;;;;;;;;;;5022105;28;20045;-72
2022/06/05 01:10:45;;;;;;;10.77;6.95;;;;;;;;;;5023428;28;20021;-73
2022/06/05 01:13:11;;;;;;;11.38;5.88;;;;;;;;;;5029044;28;20057;-74
2022/06/05 01:15:58;;;;;;;10.45;6.47;;;;;;;;;;5030071;28;20033;-74
2022/06/05 01:18:34;;;;;;;12.30;7.15;;;;;;;;;;5015916;28;20041;-74
2022/06/05 01:21:00;;;;;;;10.43;6.35;;;;;;;;;;5018765;28;20057;-74
2022/06/05 01:23:34;;;;;;;13.35;7.20;;;;;;;;;;5022295;28;20030;-73
2022/06/05 01:26:10;;;;;;;13.27;6.70;;;;;;;;;;5007558;28;20029;-73
2022/06/05 01:28:42;;;;;;;12.43;6.50;;;;;;;;;;5031362;28;20034;-74
2022/06/05 01:31:15;;;;;;;12.07;6.95;;;;;;;;;;5013119;28;20519;-72
2022/06/05 01:33:45;;;;;;;12.82;6.75;;;;;;;;;;5018265;28;20061;-75
2022/06/05 01:36:22;;;;;;;10.63;6.93;;;;;;;;;;5017792;28;20030;-73
2022/06/05 01:38:51;;;;;;;11.75;7.28;;;;;;;;;;5011335;28;20018;-73
2022/06/05 01:41:25;;;;;;;11.00;6.68;;;;;;;;;;5018910;28;20030;-72
2022/06/05 01:43:53;;;;;;;17.17;7.53;;;;;;;;;;5017817;28;20534;-73
2022/06/05 01:46:21;;;;;;;12.70;7.55;;;;;;;;;;5020842;28;20050;-73
2022/06/05 01:48:52;;;;;;;12.07;7.43;;;;;;;;;;5027390;28;20036;-72
2022/06/05 01:51:22;;;;;;;13.23;7.75;;;;;;;;;;5017912;28;20034;-73
2022/06/05 01:53:50;;;;;;;14.55;7.78;;;;;;;;;;5020742;28;20428;-72
2022/06/05 01:56:23;;;;;;;12.23;7.93;;;;;;;;;;5016146;28;20099;-72
2022/06/05 01:58:52;;;;;;;15.07;8.05;;;;;;;;;;5008124;28;20496;-73
2022/06/05 02:01:22;;;;;;;11.18;7.55;;;;;;;;;;5022775;28;20043;-73
2022/06/05 02:04:00;;;;;;;13.85;7.10;;;;;;;;;;5010356;28;20034;-72
2022/06/05 02:06:30;;;;;;;13.55;7.75;;;;;;;;;;5010928;28;20025;-73
2022/06/05 02:09:02;;;;;;;11.10;8.32;;;;;;;;;;5016571;28;20120;-73
2022/06/05 02:11:31;;;;;;;17.55;8.48;;;;;;;;;;5015415;28;20056;-72
2022/06/05 02:14:00;;;;;;;13.50;7.85;;;;;;;;;;5014116;28;20053;-73
2022/06/05 02:16:28;;;;;;;18.13;7.90;;;;;;;;;;5015070;28;20097;-72
2022/06/05 02:18:54;;;;;;;17.00;9.13;;;;;;;;;;5015848;28;20152;-71
2022/06/05 02:21:20;;;;;;;18.63;8.57;;;;;;;;;;5016878;28;20036;-72
2022/06/05 02:23:47;;;;;;;14.05;8.20;;;;;;;;;;5014618;28;20058;-73
2022/06/05 02:26:13;;;;;;;18.27;8.80;;;;;;;;;;5029262;28;20160;-72
2022/06/05 02:28:39;;;;;;;15.50;8.32;;;;;;;;;;5016170;28;20034;-72
2022/06/05 02:31:24;;;;;;;11.82;8.23;;;;;;;;;;5004340;28;20373;-72
2022/06/05 02:34:09;;;;;;;12.45;8.25;;;;;;;;;;5010254;28;20022;-74
2022/06/05 02:36:38;;;;;;;13.07;7.97;;;;;;;;;;5022295;28;20060;-72
2022/06/05 02:39:07;;;;;;;12.73;9.00;;;;;;;;;;5011743;28;20138;-72
2022/06/05 02:41:33;;;;;;;16.83;8.70;;;;;;;;;;5018697;28;20029;-75
2022/06/05 02:44:29;;;;;;;19.88;9.60;;;;;;;;;;5029016;28;20041;-73
2022/06/05 02:47:03;;;;;;;12.57;9.05;;;;;;;;;;5020433;28;20495;-73
2022/06/05 02:49:36;;;;;;;12.33;9.60;;;;;;;;;;5018274;28;20075;-73
2022/06/05 02:52:05;;;;;;;15.75;9.45;;;;;;;;;;5020996;28;20280;-74
2022/06/05 02:54:31;;;;;;;19.98;8.63;;;;;;;;;;5022827;28;20038;-73
2022/06/05 02:56:57;;;;;;;15.65;9.38;;;;;;;;;;5018917;28;20025;-73
2022/06/05 02:59:25;;;;;;;15.68;8.70;;;;;;;;;;5011957;28;20077;-73
2022/06/05 03:04:36;;;;;;;15.57;9.30;;;;;;;;;;5013225;28;20120;-73
2022/06/05 03:07:02;;;;;;;14.63;8.57;;;;;;;;;;5005688;28;20018;-72
2022/06/05 03:09:28;;;;;;;13.98;8.60;;;;;;;;;;5022830;28;20034;-72
2022/06/05 03:11:54;;;;;;;14.77;8.32;;;;;;;;;;5015981;28;20037;-74
2022/06/05 03:14:20;;;;;;;15.90;8.15;;;;;;;;;;5019341;28;20033;-73
2022/06/05 03:16:46;;;;;;;10.70;7.75;;;;;;;;;;5007727;28;20101;-73
2022/06/05 03:19:12;;;;;;;15.90;9.05;;;;;;;;;;5019667;28;20093;-73
2022/06/05 03:21:42;;;;;;;15.93;8.57;;;;;;;;;;5017737;28;20036;-73
2022/06/05 03:24:08;;;;;;;14.75;8.38;;;;;;;;;;5014273;28;20025;-72
2022/06/05 03:26:35;;;;;;;11.82;7.70;;;;;;;;;;5009812;28;20064;-71
2022/06/05 03:29:02;;;;;;;13.57;7.53;;;;;;;;;;5015892;28;20438;-73
2022/06/05 03:31:29;;;;;;;16.20;8.57;;;;;;;;;;5015922;28;20045;-72
2022/06/05 03:33:55;;;;;;;11.57;7.50;;;;;;;;;;5023473;28;20030;-72
2022/06/05 03:36:22;;;;;;;16.48;8.25;;;;;;;;;;5022390;28;20037;-73
2022/06/05 03:38:48;;;;;;;17.67;8.60;;;;;;;;;;5012209;28;20395;-72
2022/06/05 03:41:15;;;;;;;14.90;8.02;;;;;;;;;;5014659;28;20022;-73
2022/06/05 03:43:42;;;;;;;14.02;9.10;;;;;;;;;;5011889;28;20038;-73
2022/06/05 03:46:10;;;;;;;21.63;10.52;;;;;;;;;;5013258;28;20101;-74
2022/06/05 03:48:36;;;;;;;16.15;8.93;;;;;;;;;;5009226;28;20049;-74
2022/06/05 03:51:10;;;;;;;14.82;8.98;;;;;;;;;;5013303;28;20089;-72
2022/06/05 03:53:36;;;;;;;15.27;8.75;;;;;;;;;;5020224;28;20321;-72
2022/06/05 03:56:07;;;;;;;13.25;8.50;;;;;;;;;;5010752;28;20042;-72
2022/06/05 03:58:33;;;;;;;15.57;9.60;;;;;;;;;;5010489;28;20376;-72
2022/06/05 04:00:59;;;;;;;17.95;9.27;;;;;;;;;;5016872;28;20030;-73
2022/06/05 04:03:25;;;;;;;15.50;8.10;;;;;;;;;;5012174;28;20044;-74
2022/06/05 04:05:51;;;;;;;15.63;9.65;;;;;;;;;;5027294;28;20030;-72
2022/06/05 04:08:17;;;;;;;13.55;9.00;;;;;;;;;;5013171;28;20034;-72
2022/06/05 04:10:44;;;;;;;13.52;9.63;;;;;;;;;;5010440;28;20128;-72
2022/06/05 04:13:10;;;;;;;17.65;9.85;;;;;;;;;;5011966;28;20539;-73
2022/06/05 04:15:39;;;;;;;15.65;9.20;;;;;;;;;;5005207;28;20034;-73
2022/06/05 04:18:06;;;;;;;16.35;10.32;;;;;;;;;;5013440;28;20411;-73
2022/06/05 04:20:32;;;;;;;17.02;9.27;;;;;;;;;;5010417;28;20080;-73
2022/06/05 04:22:59;;;;;;;19.88;9.88;;;;;;;;;;5009994;28;20033;-72
2022/06/05 04:25:25;;;;;;;15.45;9.27;;;;;;;;;;5016186;28;20121;-74
2022/06/05 04:27:51;;;;;;;14.15;9.00;;;;;;;;;;5012056;28;20057;-73
2022/06/05 04:30:17;;;;;;;15.35;9.05;;;;;;;;;;5018141;28;20038;-73
2022/06/05 04:32:44;;;;;;;15.18;9.68;;;;;;;;;;5006361;28;20512;-71
2022/06/05 04:35:10;;;;;;;15.80;9.15;;;;;;;;;;5016395;28;20472;-72
2022/06/05 04:37:36;;;;;;;13.30;9.77;;;;;;;;;;5018482;28;20081;-72
2022/06/05 04:40:03;;;;;;;16.42;8.75;;;;;;;;;;5013044;28;20030;-71
2022/06/05 04:42:30;;;;;;;17.55;9.40;;;;;;;;;;5018894;28;20053;-72
2022/06/05 04:44:56;;;;;;;13.23;9.68;;;;;;;;;;5018069;28;20037;-72
2022/06/05 04:47:22;;;;;;;18.30;9.43;;;;;;;;;;5006215;28;20030;-72
2022/06/05 04:49:49;;;;;;;15.00;9.07;;;;;;;;;;5009237;28;20032;-72
2022/06/05 04:52:15;;;;;;;18.58;9.82;;;;;;;;;;5024785;28;20069;-72
2022/06/05 04:54:41;;;;;;;14.25;9.30;;;;;;;;;;5020640;28;20034;-73
2022/06/05 04:57:07;;;;;;;17.40;9.68;;;;;;;;;;5016406;28;20102;-73
2022/06/05 04:59:33;;;;;;;13.65;9.05;;;;;;;;;;5013399;28;20022;-73
2022/06/05 05:02:00;;;;;;;18.02;9.45;;;;;;;;;;5009036;28;20018;-72
2022/06/05 05:04:26;;;;;;;12.70;9.13;;;;;;;;;;5014795;28;20080;-73
2022/06/05 05:06:52;;;;;;;13.95;9.85;;;;;;;;;;5010630;28;20022;-72
2022/06/05 05:09:18;;;;;;;19.40;8.90;;;;;;;;;;5020722;28;20030;-72
2022/06/05 05:11:44;;;;;;;14.65;8.70;;;;;;;;;;5017343;28;20023;-71
2022/06/05 05:14:11;;;;;;;18.92;9.60;;;;;;;;;;5020818;28;20045;-73
2022/06/05 05:16:37;;;;;;;20.65;11.02;;;;;;;;;;5020457;28;20026;-73
2022/06/05 05:19:03;;;;;;;13.43;9.13;;;;;;;;;;5017368;28;20040;-73
2022/06/05 05:21:29;;;;;;;18.65;9.82;;;;;;;;;;5024402;28;20473;-72
2022/06/05 05:23:55;;;;;;;19.38;8.60;;;;;;;;;;5025561;28;20037;-73
2022/06/05 05:26:23;;;;;;;16.90;9.80;;;;;;;;;;5021592;28;20140;-72
2022/06/05 05:28:50;;;;;;;15.30;8.18;;;;;;;;;;5026373;28;20081;-72
2022/06/05 05:31:18;;;;;;;19.25;8.85;;;;;;;;;;5024949;28;20037;-71
2022/06/05 05:33:44;;;;;;;15.93;9.38;;;;;;;;;;5019953;28;20029;-72
2022/06/05 05:36:11;;;;;;;16.13;8.95;;;;;;;;;;5021162;28;20065;-72
2022/06/05 05:38:37;;;;;;;15.70;9.52;;;;;;;;;;5016476;28;20061;-72
2022/06/05 05:43:49;;;;;;;15.88;8.82;;;;;;;;;;5011316;28;20124;-72
2022/06/05 05:46:16;;;;;;;16.98;9.98;;;;;;;;;;5019752;28;20132;-73
2022/06/05 05:48:42;;;;;;;16.40;10.68;;;;;;;;;;5013178;28;20048;-73
2022/06/05 05:51:12;;;;;;;17.95;10.27;;;;;;;;;;5018095;28;20041;-73
2022/06/05 05:53:39;;;;;;;19.83;10.77;;;;;;;;;;5007925;28;20049;-73
2022/06/05 05:56:12;;;;;;;19.15;10.60;;;;;;;;;;5011659;28;20031;-72
2022/06/05 05:58:39;;;;;;;20.08;10.93;;;;;;;;;;5021972;28;20040;-73
2022/06/05 06:01:07;;;;;;;15.27;10.45;;;;;;;;;;5015995;28;20026;-72
2022/06/05 06:03:33;;;;;;;13.50;10.02;;;;;;;;;;5017273;28;20033;-72
2022/06/05 06:06:01;;;;;;;18.25;11.98;;;;;;;;;;5017384;28;20052;-72
2022/06/05 06:08:28;;;;;;;21.35;11.75;;;;;;;;;;5014569;28;20113;-73
2022/06/05 06:10:54;;;;;;;16.17;11.07;;;;;;;;;;5012722;28;20034;-71
2022/06/05 06:13:21;;;;;;;21.23;11.32;;;;;;;;;;5022191;28;20026;-73
2022/06/05 06:15:47;;;;;;;19.10;11.75;;;;;;;;;;5014398;28;20029;-72
2022/06/05 06:18:14;;;;;;;19.13;11.05;;;;;;;;;;5010631;28;20030;-72
2022/06/05 06:20:40;;;;;;;20.42;10.80;;;;;;;;;;5014532;28;20088;-74
2022/06/05 06:23:07;;;;;;;16.17;11.77;;;;;;;;;;5019338;28;20531;-72
2022/06/05 06:25:33;;;;;;;17.48;10.60;;;;;;;;;;5019675;28;20025;-73
2022/06/05 06:27:59;;;;;;;17.85;11.55;;;;;;;;;;5020362;28;20137;-71
2022/06/05 06:30:25;;;;;;;23.58;11.93;;;;;;;;;;5018619;28;20089;-71
2022/06/05 06:32:51;;;;;;;18.45;11.80;;;;;;;;;;5015378;28;20037;-73
2022/06/05 06:35:17;;;;;;;18.02;10.32;;;;;;;;;;5010812;28;20523;-73
2022/06/05 06:37:43;;;;;;;19.35;11.23;;;;;;;;;;5011873;28;20030;-72
2022/06/05 06:40:09;;;;;;;20.92;11.05;;;;;;;;;;5010944;28;20027;-72
2022/06/05 06:42:35;;;;;;;19.77;11.38;;;;;;;;;;5015226;28;20030;-71
2022/06/05 06:45:01;;;;;;;16.80;11.23;;;;;;;;;;5016694;28;20107;-73
2022/06/05 06:47:28;;;;;;;18.45;11.45;;;;;;;;;;5016571;28;20423;-72
2022/06/05 06:49:54;;;;;;;29.48;10.52;;;;;;;;;;5018191;28;20056;-71
2022/06/05 06:52:20;;;;;;;22.65;10.40;;;;;;;;;;5015136;28;20034;-71
2022/06/05 06:54:48;;;;;;;19.17;10.63;;;;;;;;;;5016941;28;20018;-73
2022/06/05 06:57:14;;;;;;;18.38;10.68;;;;;;;;;;5004940;28;20026;-74
2022/06/05 06:59:40;;;;;;;16.95;11.30;;;;;;;;;;5016772;28;20048;-71
2022/06/05 07:02:07;;;;;;;21.63;10.50;;;;;;;;;;5020112;28;20085;-71
2022/06/05 07:04:33;;;;;;;19.27;10.73;;;;;;;;;;5016793;28;20037;-71
2022/06/05 07:06:59;;;;;;;18.40;10.98;;;;;;;;;;5008554;28;20113;-73
2022/06/05 07:09:25;;;;;;;20.05;10.05;;;;;;;;;;5004042;28;20023;-73
2022/06/05 07:11:51;;;;;;;18.27;11.52;;;;;;;;;;5018569;28;20041;-73
2022/06/05 07:14:18;;;;;;;19.48;11.43;;;;;;;;;;5007556;28;20033;-73
2022/06/05 07:16:44;;;;;;;16.65;10.82;;;;;;;;;;5009092;28;20030;-72
2022/06/05 07:19:10;;;;;;;21.13;12.35;;;;;;;;;;5007138;28;20034;-72
2022/06/05 07:21:36;;;;;;;23.15;12.57;;;;;;;;;;5015192;28;20100;-72
2022/06/05 07:24:02;;;;;;;20.08;13.18;;;;;;;;;;5013271;28;20085;-72
2022/06/05 07:26:38;;;;;;;21.75;12.68;;;;;;;;;;5020201;28;20085;-72
2022/06/05 07:29:04;;;;;;;26.08;11.52;;;;;;;;;;5017726;28;20049;-74
2022/06/05 07:31:31;;;;;;;22.25;12.38;;;;;;;;;;5014881;28;20233;-72
2022/06/05 07:33:58;;;;;;;20.88;12.35;;;;;;;;;;5012715;28;20079;-73
2022/06/05 07:36:26;;;;;;;20.50;11.93;;;;;;;;;;5005613;28;20041;-72
2022/06/05 07:38:53;;;;;;;24.15;12.13;;;;;;;;;;5010726;28;20080;-73
2022/06/05 07:41:23;;;;;;;22.35;12.75;;;;;;;;;;5008874;28;20025;-73
2022/06/05 07:43:50;;;;;;;23.52;12.52;;;;;;;;;;5010287;28;20500;-72
2022/06/05 07:46:17;;;;;;;23.50;12.77;;;;;;;;;;5013733;28;20042;-73
2022/06/05 07:48:43;;;;;;;24.20;13.60;;;;;;;;;;5008599;28;20401;-73
2022/06/05 07:56:40;;;;;;;19.92;12.40;;;;;;;;;;5006672;28;20153;-72
2022/06/05 07:59:07;;;;;;;17.98;12.32;;;;;;;;;;5007046;28;20394;-73
2022/06/05 08:01:33;;;;;;;27.42;13.73;;;;;;;;;;5010339;28;20653;-71
2022/06/05 08:03:59;;;;;;;23.80;14.10;;;;;;;;;;5006290;28;20030;-71
2022/06/05 08:06:26;;;;;;;22.30;13.52;;;;;;;;;;5009368;28;20034;-72
2022/06/05 08:08:52;;;;;;;23.77;15.20;;;;;;;;;;5009812;28;20025;-72
2022/06/05 08:11:18;;;;;;;26.50;14.02;;;;;;;;;;5003468;28;20065;-72
2022/06/05 08:13:44;;;;;;;21.73;12.45;;;;;;;;;;5018843;28;20439;-72
2022/06/05 08:16:11;;;;;;;20.20;13.43;;;;;;;;;;5020152;28;21911;-73
2022/06/05 08:18:37;;;;;;;25.40;12.43;;;;;;;;;;5014937;28;20026;-75
2022/06/05 08:21:04;;;;;;;28.40;13.95;;;;;;;;;;5014483;28;20121;-73
2022/06/05 08:23:30;;;;;;;24.77;13.00;;;;;;;;;;5014835;28;20051;-73
2022/06/05 08:25:56;;;;;;;19.75;12.75;;;;;;;;;;5013597;28;20421;-73
2022/06/05 08:28:25;;;;;;;18.52;12.65;;;;;;;;;;5009491;28;20049;-74
2022/06/05 08:30:52;;;;;;;22.08;13.00;;;;;;;;;;5011202;28;20252;-76
2022/06/05 08:33:18;;;;;;;23.13;11.38;;;;;;;;;;5009646;28;20332;-73
2022/06/05 08:35:51;;;;;;;25.88;12.77;;;;;;;;;;5015156;28;20483;-73
2022/06/05 08:41:28;;;;;;;14.93;11.02;;;;;;;;;;5006528;28;20038;-74
2022/06/05 08:43:56;;;;;;;19.67;11.18;;;;;;;;;;5014902;28;20030;-71
2022/06/05 08:46:48;;;;;;;20.88;11.82;;;;;;;;;;5017011;28;20049;-74
2022/06/05 08:49:34;;;;;;;19.20;11.45;;;;;;;;;;5004424;28;20033;-72
2022/06/05 08:52:12;;;;;;;16.88;10.82;;;;;;;;;;4997560;28;20142;-72
2022/06/05 08:54:40;;;;;;;20.30;11.63;;;;;;;;;;5010180;28;20026;-74
2022/06/05 08:57:15;;;;;;;21.98;11.98;;;;;;;;;;5013497;28;20037;-72
2022/06/05 08:59:46;;;;;;;18.00;10.98;;;;;;;;;;5012421;28;20025;-73
2022/06/05 09:02:15;;;;;;;17.00;10.15;;;;;;;;;;5006916;28;20074;-73
2022/06/05 09:04:45;;;;;;;23.00;11.70;;;;;;;;;;5012543;28;20136;-73
2022/06/05 09:07:14;;;;;;;13.77;9.93;;;;;;;;;;5015917;28;20029;-72
2022/06/05 09:09:46;;;;;;;22.90;12.00;;;;;;;;;;5008914;28;20102;-73
2022/06/05 09:12:21;;;;;;;15.02;10.15;;;;;;;;;;5016393;28;20037;-72
2022/06/05 09:14:56;;;;;;;17.05;10.65;;;;;;;;;;5009169;28;20022;-72
2022/06/05 09:17:23;;;;;;;17.17;11.23;;;;;;;;;;5011819;28;20041;-73
2022/06/05 09:19:51;;;;;;;17.80;10.85;;;;;;;;;;5012769;28;20022;-73
2022/06/05 09:22:34;;;;;;;16.88;10.18;;;;;;;;;;5013160;28;20036;-74
2022/06/05 09:25:26;;;;;;;18.77;10.75;;;;;;;;;;5013802;28;20038;-72
2022/06/05 09:28:14;;;;;;;14.77;10.98;;;;;;;;;;5009946;28;20485;-73
2022/06/05 09:30:51;;;;;;;18.85;10.43;;;;;;;;;;5013536;28;20061;-74
2022/06/05 09:33:17;;;;;;;15.77;9.45;;;;;;;;;;5016177;28;20139;-73
2022/06/05 09:35:47;;;;;;;16.00;9.93;;;;;;;;;;5020390;28;20574;-72
2022/06/05 09:38:22;;;;;;;17.88;10.48;;;;;;;;;;5010069;28;20018;-74
2022/06/05 09:41:08;;;;;;;14.10;9.43;;;;;;;;;;5014474;28;20030;-73
2022/06/05 09:43:52;;;;;;;18.25;10.30;;;;;;;;;;4990238;28;20072;-72
2022/06/05 09:46:28;;;;;;;15.75;10.43;;;;;;;;;;5010238;28;20394;-74
2022/06/05 09:48:57;;;;;;;13.82;9.88;;;;;;;;;;5018388;28;20017;-74
2022/06/05 09:51:24;;;;;;;13.70;10.02;;;;;;;;;;5017204;28;20025;-74
2022/06/05 09:54:16;;;;;;;12.50;9.05;;;;;;;;;;5005185;28;20025;-73
2022/06/05 09:59:35;;;;;;;13.50;10.30;;;;;;;;;;5000904;28;20088;-73
2022/06/05 10:02:01;;;;;;;13.40;9.05;;;;;;;;;;5014518;28;20388;-74
2022/06/05 10:04:30;;;;;;;12.88;9.23;;;;;;;;;;5008174;28;20042;-74
2022/06/05 10:07:08;;;;;;;16.00;10.20;;;;;;;;;;5011411;28;20185;-74
2022/06/05 10:09:38;;;;;;;15.73;8.95;;;;;;;;;;5009997;28;20034;-74
2022/06/05 10:12:14;;;;;;;14.65;8.52;;;;;;;;;;5012945;28;20033;-74
2022/06/05 10:14:55;;;;;;;16.02;9.25;;;;;;;;;;5018294;28;20044;-72
2022/06/05 10:17:22;;;;;;;16.92;9.25;;;;;;;;;;5011429;28;20113;-74
2022/06/05 10:19:54;;;;;;;15.07;9.50;;;;;;;;;;5009266;28;20038;-73
2022/06/05 10:22:24;;;;;;;13.35;9.68;;;;;;;;;;5013551;28;20049;-74
2022/06/05 10:24:56;;;;;;;17.23;9.95;;;;;;;;;;5013052;28;20022;-73
2022/06/05 10:27:23;;;;;;;13.55;9.52;;;;;;;;;;5006528;28;20037;-74
2022/06/05 10:29:52;;;;;;;14.05;9.35;;;;;;;;;;5009264;28;20037;-75
2022/06/05 10:32:33;;;;;;;14.10;9.88;;;;;;;;;;5001462;28;20029;-72
2022/06/05 10:35:11;;;;;;;15.65;10.77;;;;;;;;;;5001855;28;20608;-73
2022/06/05 10:37:40;;;;;;;16.67;9.45;;;;;;;;;;4999974;28;20314;-75
2022/06/05 10:40:25;;;;;;;15.75;10.13;;;;;;;;;;5009096;28;20106;-75
2022/06/05 10:42:52;;;;;;;15.43;10.50;;;;;;;;;;5006172;28;20041;-75
2022/06/05 10:45:18;;;;;;;15.23;10.20;;;;;;;;;;5008002;28;20034;-73
2022/06/05 10:47:53;;;;;;;23.08;10.48;;;;;;;;;;5008175;28;20084;-74
2022/06/05 10:50:35;;;;;;;14.82;9.77;;;;;;;;;;5007600;28;20037;-74
2022/06/05 10:53:06;;;;;;;13.85;9.32;;;;;;;;;;5009174;28;20060;-73
2022/06/05 10:55:51;;;;;;;13.50;9.18;;;;;;;;;;5008762;28;20618;-73
2022/06/05 10:58:20;;;;;;;14.60;9.30;;;;;;;;;;5001964;28;20034;-73
2022/06/05 11:00:58;;;;;;;17.85;9.07;;;;;;;;;;5004547;28;20053;-73
2022/06/05 11:03:36;;;;;;;13.07;9.15;;;;;;;;;;5006397;28;20423;-76
2022/06/05 11:06:05;;;;;;;13.93;9.50;;;;;;;;;;5007141;28;20113;-74
2022/06/05 11:08:34;;;;;;;13.68;9.65;;;;;;;;;;5000890;28;20037;-74
2022/06/05 11:13:51;;;;;;;14.23;9.48;;;;;;;;;;5001147;28;20119;-75
2022/06/05 11:16:30;;;;;;;16.77;10.48;;;;;;;;;;5000803;28;20041;-74
2022/06/05 11:19:08;;;;;;;14.27;9.15;;;;;;;;;;4999824;28;20519;-76
2022/06/05 11:21:34;;;;;;;20.70;10.52;;;;;;;;;;4994807;28;20815;-75
2022/06/05 11:24:00;;;;;;;15.48;10.13;;;;;;;;;;4992981;28;20164;-73
2022/06/05 11:26:33;;;;;;;20.63;11.10;;;;;;;;;;4997309;28;20037;-75
2022/06/05 11:29:22;;;;;;;15.80;10.15;;;;;;;;;;4999238;28;20041;-74
2022/06/05 11:31:55;;;;;;;15.90;9.70;;;;;;;;;;4983692;28;20046;-74
2022/06/05 11:34:27;;;;;;;15.38;10.13;;;;;;;;;;4999343;28;20066;-74
2022/06/05 11:36:55;;;;;;;13.90;9.35;;;;;;;;;;4999180;28;20049;-75
2022/06/05 11:39:27;;;;;;;15.05;9.43;;;;;;;;;;4999241;28;20579;-74
2022/06/05 11:42:09;;;;;;;15.95;9.82;;;;;;;;;;4996611;28;20038;-74
2022/06/05 11:44:41;;;;;;;15.52;9.80;;;;;;;;;;4997702;28;20026;-74
2022/06/05 11:47:09;;;;;;;18.02;9.55;;;;;;;;;;4998312;28;20309;-74
2022/06/05 11:49:44;;;;;;;17.48;8.98;;;;;;;;;;4997373;28;20125;-73
2022/06/05 11:52:25;;;;;;;15.10;8.65;;;;;;;;;;5002184;28;20585;-75
2022/06/05 11:54:58;;;;;;;13.90;8.05;;;;;;;;;;5004902;28;20049;-74
2022/06/05 11:57:48;;;;;;;12.68;8.50;;;;;;;;;;4999907;28;20045;-75
2022/06/05 12:00:16;;;;;;;13.50;8.05;;;;;;;;;;5002022;28;20029;-75
2022/06/05 12:02:51;;;;;;;18.02;9.27;;;;;;;;;;5005393;28;20022;-74
2022/06/05 12:05:17;;;;;;;14.23;8.55;;;;;;;;;;4999738;28;20041;-73
2022/06/05 12:07:44;;;;;;;17.88;8.70;;;;;;;;;;5011948;28;20056;-74
2022/06/05 12:10:28;;;;;;;13.55;7.90;;;;;;;;;;5007704;28;20786;-74
2022/06/05 12:13:13;;;;;;;11.50;8.05;;;;;;;;;;5010443;28;20065;-74
2022/06/05 12:16:06;;;;;;;14.85;8.77;;;;;;;;;;5002786;28;22036;-74
2022/06/05 12:18:40;;;;;;;10.35;8.07;;;;;;;;;;4979601;28;20469;-74
2022/06/05 12:21:09;;;;;;;11.10;7.65;;;;;;;;;;5001970;28;20024;-76
2022/06/05 12:23:41;;;;;;;8.77;7.45;;;;;;;;;;5004009;28;20033;-75
2022/06/05 12:26:25;;;;;;;10.23;7.30;;;;;;;;;;5001458;28;20032;-73
2022/06/05 12:28:54;;;;;;;8.17;6.90;;;;;;;;;;4996007;28;20080;-74
2022/06/05 12:31:37;;;;;;;8.40;5.88;;;;;;;;;;4996164;28;20036;-75
2022/06/05 12:34:03;;;;;;;10.55;7.75;;;;;;;;;;5001110;28;20136;-74
2022/06/05 12:36:33;;;;;;;8.93;7.22;;;;;;;;;;4987079;28;20068;-75
2022/06/05 12:39:00;;;;;;;10.43;6.22;;;;;;;;;;4996999;28;20036;-75
2022/06/05 12:41:37;;;;;;;8.63;6.40;;;;;;;;;;4998075;28;20558;-74
2022/06/05 12:44:15;;;;;;;9.88;6.13;;;;;;;;;;4989372;28;20029;-74
2022/06/05 12:46:41;;;;;;;8.60;6.32;;;;;;;;;;4993232;28;20092;-74
2022/06/05 12:49:07;;;;;;;11.68;6.60;;;;;;;;;;4992983;28;20048;-74
2022/06/05 12:51:33;;;;;;;10.02;6.13;;;;;;;;;;4992633;28;20120;-73
2022/06/05 12:54:04;;;;;;;14.02;8.32;;;;;;;;;;4988460;28;20555;-76
2022/06/05 12:56:40;;;;;;;9.60;6.70;;;;;;;;;;4995012;28;20040;-74
2022/06/05 12:59:18;;;;;;;8.68;6.53;;;;;;;;;;4995736;28;20105;-73
2022/06/05 13:01:46;;;;;;;11.90;7.97;;;;;;;;;;4993874;28;20621;-75
2022/06/05 13:04:21;;;;;;;9.52;7.70;;;;;;;;;;4998505;28;20069;-74
2022/06/05 13:06:54;;;;;;;15.60;7.88;;;;;;;;;;5000769;28;20116;-74
2022/06/05 13:09:20;;;;;;;15.77;8.57;;;;;;;;;;5000768;28;20026;-74
2022/06/05 13:12:13;;;;;;;10.30;8.07;;;;;;;;;;5001545;28;20106;-74
2022/06/05 13:14:47;;;;;;;13.80;8.73;;;;;;;;;;4976069;28;20053;-74
2022/06/05 13:17:18;;;;;;;13.87;8.03;;;;;;;;;;5001900;28;20033;-73
2022/06/05 13:19:56;;;;;;;10.73;7.93;;;;;;;;;;5003555;28;20312;-76
2022/06/05 13:22:32;;;;;;;12.45;7.95;;;;;;;;;;4997409;28;20638;-75
2022/06/05 13:25:11;;;;;;;11.30;8.30;;;;;;;;;;4999718;28;20176;-74
2022/06/05 13:27:48;;;;;;;10.00;8.23;;;;;;;;;;5003644;28;20035;-74
2022/06/05 13:30:17;;;;;;;9.98;7.40;;;;;;;;;;5003305;28;20033;-75
2022/06/05 13:32:48;;;;;;;16.38;7.95;;;;;;;;;;5004507;28;20058;-74
2022/06/05 13:35:21;;;;;;;11.00;7.95;;;;;;;;;;5003835;28;20073;-73
2022/06/05 13:37:50;;;;;;;15.02;7.85;;;;;;;;;;5001973;28;20084;-73
2022/06/05 13:40:16;;;;;;;11.20;7.43;;;;;;;;;;5001414;28;20037;-73
2022/06/05 13:42:49;;;;;;;10.20;7.28;;;;;;;;;;5003681;28;20033;-74
2022/06/05 13:45:35;;;;;;;10.80;6.80;;;;;;;;;;5001121;28;20515;-74
2022/06/05 13:48:15;;;;;;;9.23;7.38;;;;;;;;;;5004166;28;20104;-73
2022/06/05 13:50:41;;;;;;;13.93;7.47;;;;;;;;;;5002693;28;20033;-74
2022/06/05 13:53:07;;;;;;;10.80;8.25;;;;;;;;;;4998201;28;20034;-73
2022/06/05 13:55:36;;;;;;;11.32;8.60;;;;;;;;;;5005099;28;20036;-72
2022/06/05 13:58:41;;;;;;;12.10;8.23;;;;;;;;;;5001150;28;20108;-72
2022/06/05 14:01:11;;;;;;;15.05;9.35;;;;;;;;;;4962369;28;20054;-71
2022/06/05 14:03:54;;;;;;;15.98;10.10;;;;;;;;;;4962809;28;20245;-72
2022/06/05 14:06:24;;;;;;;13.60;7.68;;;;;;;;;;4989006;28;20449;-71
2022/06/05 14:08:50;;;;;;;16.77;10.00;;;;;;;;;;5000174;28;20224;-73
2022/06/05 14:11:17;;;;;;;13.98;8.35;;;;;;;;;;4999703;28;20569;-71
2022/06/05 14:13:45;;;;;;;14.90;8.90;;;;;;;;;;5004173;28;20042;-75
2022/06/05 14:16:12;;;;;;;12.57;9.18;;;;;;;;;;5005375;28;20752;-77
2022/06/05 14:18:40;;;;;;;10.05;8.20;;;;;;;;;;5010792;28;20026;-76
2022/06/05 14:21:07;;;;;;;15.98;8.95;;;;;;;;;;5008746;28;20037;-78
2022/06/05 14:23:33;;;;;;;15.02;9.18;;;;;;;;;;5006203;28;20059;-77
2022/06/05 14:26:00;;;;;;;13.30;9.32;;;;;;;;;;5009984;28;20034;-79
2022/06/05 14:28:34;;;;;;;13.73;8.30;;;;;;;;;;5009964;28;20030;-77
2022/06/05 14:31:03;;;;;;;12.98;7.65;;;;;;;;;;5012055;28;20029;-77
2022/06/05 14:33:32;;;;;;;13.88;9.05;;;;;;;;;;5011330;28;20034;-77
2022/06/05 14:35:58;;;;;;;15.45;9.35;;;;;;;;;;5007442;28;20100;-78
2022/06/05 14:38:29;;;;;;;22.45;10.43;;;;;;;;;;5017329;28;20429;-78
2022/06/05 14:41:15;;;;;;;11.50;8.55;;;;;;;;;;5010376;28;20144;-77
2022/06/05 14:44:00;;;;;;;15.35;10.13;;;;;;;;;;5008226;28;20060;-76
2022/06/05 14:46:36;;;;;;;17.20;9.88;;;;;;;;;;5010792;28;20045;-78
2022/06/05 14:49:02;;;;;;;16.58;9.82;;;;;;;;;;5012830;28;20034;-77
2022/06/05 14:51:28;;;;;;;16.95;11.63;;;;;;;;;;5011950;28;20112;-77
2022/06/05 14:53:59;;;;;;;19.60;11.45;;;;;;;;;;5011132;28;20021;-78
2022/06/05 14:59:15;;;;;;;19.60;10.52;;;;;;;;;;5014569;28;20044;-77
2022/06/05 15:01:41;;;;;;;15.07;10.05;;;;;;;;;;5015734;28;20079;-77
2022/06/05 15:04:18;;;;;;;24.98;11.70;;;;;;;;;;5017799;28;20044;-77
2022/06/05 15:06:47;;;;;;;16.08;10.27;;;;;;;;;;5012804;28;20064;-77